createdAt,value
2018-12-15T00:00:06.918Z,51.41
2018-12-15T00:03:31.675Z,50.83
2018-12-15T00:06:56.379Z,50.96
2018-12-15T00:10:21.151Z,52.01
2018-12-15T00:13:45.863Z,51.23
2018-12-15T00:17:10.620Z,51.43
2018-12-15T00:20:35.355Z,50.74
2018-12-15T00:24:00.118Z,51.19
2018-12-15T00:27:24.825Z,51.85
2018-12-15T00:30:49.653Z,51.90
2018-12-15T00:34:14.378Z,50.31
2018-12-15T00:37:39.173Z,50.96
2018-12-15T00:41:04.179Z,51.55
2018-12-15T00:44:28.918Z,51.47
2018-12-15T00:47:53.568Z,50.45
2018-12-15T00:51:18.643Z,51.34
2018-12-15T00:54:43.359Z,50.38
2018-12-15T00:58:08.033Z,50.81
2018-12-15T01:01:32.729Z,50.04
2018-12-15T01:04:57.406Z,49.19
2018-12-15T01:08:22.077Z,50.32
2018-12-15T01:11:46.780Z,50.05
2018-12-15T01:15:11.431Z,50.03
2018-12-15T01:18:36.085Z,50.10
2018-12-15T01:22:00.727Z,49.24
2018-12-15T01:25:25.404Z,49.99
2018-12-15T01:28:50.055Z,48.46
2018-12-15T01:32:14.839Z,47.46
2018-12-15T01:35:39.644Z,48.31
2018-12-15T01:39:06.695Z,47.39
2018-12-15T01:42:31.378Z,49.92
2018-12-15T01:45:56.209Z,49.90
2018-12-15T01:49:21.029Z,49.23
2018-12-15T01:52:45.752Z,48.11
2018-12-15T01:56:10.415Z,49.31
2018-12-15T01:59:35.121Z,50.53
2018-12-15T02:02:59.856Z,50.86
2018-12-15T02:06:24.544Z,49.83
2018-12-15T02:09:49.180Z,50.10
2018-12-15T02:13:13.894Z,50.04
2018-12-15T02:16:38.616Z,49.72
2018-12-15T02:20:03.726Z,50.35
2018-12-15T02:23:28.482Z,49.50
2018-12-15T02:26:53.329Z,50.35
2018-12-15T02:30:18.000Z,50.22
2018-12-15T02:33:42.746Z,50.78
2018-12-15T02:37:07.461Z,50.18
2018-12-15T02:40:32.199Z,50.52
2018-12-15T02:43:57.039Z,49.92
2018-12-15T02:47:21.770Z,49.74
2018-12-15T02:50:46.555Z,50.60
2018-12-15T02:54:11.216Z,50.83
2018-12-15T02:57:35.921Z,49.99
2018-12-15T03:01:00.755Z,50.87
2018-12-15T03:04:25.518Z,50.28
2018-12-15T03:11:54.835Z,51.43
2018-12-15T03:15:19.470Z,51.39
2018-12-15T03:18:44.116Z,50.32
2018-12-15T03:22:08.769Z,50.34
2018-12-15T03:25:33.431Z,51.01
2018-12-15T03:28:58.093Z,51.29
2018-12-15T03:32:22.813Z,49.99
2018-12-15T03:35:47.470Z,51.94
2018-12-15T03:39:12.139Z,51.71
2018-12-15T03:42:36.843Z,50.87
2018-12-15T03:46:01.570Z,50.75
2018-12-15T03:49:26.256Z,50.99
2018-12-15T03:52:50.942Z,51.60
2018-12-15T03:56:15.604Z,51.15
2018-12-15T03:59:40.463Z,51.30
2018-12-15T04:03:05.191Z,52.41
2018-12-15T04:06:29.932Z,51.70
2018-12-15T04:09:54.604Z,50.46
2018-12-15T04:13:19.294Z,51.58
2018-12-15T04:16:44.024Z,50.27
2018-12-15T04:20:08.730Z,50.64
2018-12-15T04:23:33.410Z,50.02
2018-12-15T04:26:58.084Z,48.37
2018-12-15T04:30:22.719Z,48.86
2018-12-15T04:33:47.367Z,49.37
2018-12-15T04:37:11.996Z,48.44
2018-12-15T04:40:36.907Z,49.34
2018-12-15T04:44:01.790Z,49.46
2018-12-15T04:47:26.668Z,50.18
2018-12-15T04:50:51.354Z,49.46
2018-12-15T04:54:16.017Z,48.86
2018-12-15T04:57:40.758Z,49.70
2018-12-15T05:01:05.476Z,49.17
2018-12-15T05:04:30.278Z,49.19
2018-12-15T05:07:55.025Z,48.37
2018-12-15T05:11:19.737Z,49.43
2018-12-15T05:14:44.483Z,48.48
2018-12-15T05:18:09.240Z,48.71
2018-12-15T05:21:33.914Z,48.89
2018-12-15T05:24:58.896Z,48.31
2018-12-15T05:28:23.706Z,48.98
2018-12-15T05:31:48.413Z,49.04
2018-12-15T05:35:13.120Z,49.19
2018-12-15T05:38:37.798Z,49.38
2018-12-15T05:42:02.520Z,48.04
2018-12-15T05:45:27.196Z,48.98
2018-12-15T05:48:51.846Z,49.70
2018-12-15T05:52:16.557Z,48.64
2018-12-15T05:55:41.259Z,49.36
2018-12-15T05:59:05.997Z,50.34
2018-12-15T06:02:31.054Z,50.29
2018-12-15T06:05:55.669Z,49.58
2018-12-15T06:09:20.379Z,49.24
2018-12-15T06:12:45.088Z,49.43
2018-12-15T06:16:09.767Z,50.25
2018-12-15T06:19:34.466Z,49.41
2018-12-15T06:22:59.133Z,49.76
2018-12-15T06:26:23.868Z,50.01
2018-12-15T06:29:48.522Z,49.48
2018-12-15T06:33:13.411Z,49.10
2018-12-15T06:36:38.876Z,50.32
2018-12-15T06:40:03.730Z,49.66
2018-12-15T06:43:28.992Z,49.96
2018-12-15T06:46:53.724Z,49.17
2018-12-15T06:50:18.435Z,49.48
2018-12-15T06:53:43.083Z,49.26
2018-12-15T06:57:08.020Z,50.02
2018-12-15T07:00:32.877Z,49.35
2018-12-15T07:03:57.531Z,49.92
2018-12-15T07:07:22.526Z,49.83
2018-12-15T07:10:47.284Z,49.25
2018-12-15T07:14:12.060Z,48.99
2018-12-15T07:17:37.417Z,49.45
2018-12-15T07:21:02.322Z,49.96
2018-12-15T07:24:26.986Z,50.17
2018-12-15T07:27:51.708Z,50.05
2018-12-15T07:31:16.611Z,49.88
2018-12-15T07:34:41.292Z,50.22
2018-12-15T07:38:06.035Z,51.06
2018-12-15T07:41:30.851Z,50.59
2018-12-15T07:44:55.543Z,50.76
2018-12-15T07:48:24.792Z,51.28
2018-12-15T07:51:49.572Z,49.83
2018-12-15T07:55:14.413Z,49.91
2018-12-15T07:58:39.127Z,50.77
2018-12-15T08:05:40.240Z,50.51
2018-12-15T08:09:07.842Z,50.50
2018-12-15T08:12:42.045Z,50.49
2018-12-15T08:16:06.884Z,51.25
2018-12-15T08:19:31.676Z,50.64
2018-12-15T08:22:56.537Z,50.29
2018-12-15T08:26:21.235Z,50.72
2018-12-15T08:29:45.941Z,49.83
2018-12-15T08:33:10.672Z,49.75
2018-12-15T08:36:35.354Z,50.26
2018-12-15T08:40:00.044Z,50.53
2018-12-15T08:43:24.699Z,50.57
2018-12-15T08:46:49.466Z,50.36
2018-12-15T08:50:14.100Z,50.33
2018-12-15T08:53:38.836Z,50.38
2018-12-15T08:57:03.570Z,51.37
2018-12-15T09:00:28.340Z,50.96
2018-12-15T09:03:53.007Z,50.55
2018-12-15T09:07:17.775Z,51.23
2018-12-15T09:10:42.516Z,50.93
2018-12-15T09:14:07.353Z,51.22
2018-12-15T09:17:32.153Z,50.46
2018-12-15T09:20:56.875Z,51.07
2018-12-15T09:24:22.174Z,51.26
2018-12-15T09:27:46.911Z,50.59
2018-12-15T09:31:11.633Z,51.37
2018-12-15T09:34:36.320Z,50.54
2018-12-15T09:38:01.090Z,50.57
2018-12-15T09:45:03.580Z,51.17
2018-12-15T09:48:28.280Z,52.06
2018-12-15T09:51:52.923Z,51.56
2018-12-15T09:55:17.631Z,52.44
2018-12-15T09:58:42.326Z,51.29
2018-12-15T10:02:07.427Z,52.01
2018-12-15T10:05:32.168Z,52.39
2018-12-15T10:08:56.870Z,51.97
2018-12-15T10:12:21.602Z,51.75
2018-12-15T10:15:46.423Z,51.55
2018-12-15T10:19:11.086Z,52.06
2018-12-15T10:22:35.882Z,52.07
2018-12-15T10:26:00.693Z,52.12
2018-12-15T10:29:30.463Z,51.70
2018-12-15T10:32:55.183Z,52.15
2018-12-15T10:36:19.864Z,52.42
2018-12-15T10:39:44.560Z,62.17
2018-12-15T10:43:09.387Z,51.04
2018-12-15T10:46:34.055Z,49.75
2018-12-15T10:49:59.446Z,50.45
2018-12-15T10:53:31.799Z,51.26
2018-12-15T10:56:56.581Z,52.01
2018-12-15T11:00:29.369Z,51.12
2018-12-15T11:08:14.249Z,51.67
2018-12-15T11:11:39.053Z,51.98
2018-12-15T11:15:03.834Z,50.98
2018-12-15T11:18:30.720Z,52.07
2018-12-15T11:21:55.367Z,52.29
2018-12-15T11:25:20.132Z,52.07
2018-12-15T11:28:44.866Z,51.61
2018-12-15T11:32:09.648Z,51.68
2018-12-15T11:35:34.316Z,51.71
2018-12-15T11:38:59.025Z,51.33
2018-12-15T11:42:23.692Z,51.60
2018-12-15T11:45:48.476Z,52.02
2018-12-15T11:49:13.224Z,51.86
2018-12-15T11:52:37.960Z,52.10
2018-12-15T11:56:02.736Z,51.14
2018-12-15T11:59:27.481Z,52.19
2018-12-15T12:02:52.800Z,51.17
2018-12-15T12:06:17.539Z,51.29
2018-12-15T12:09:42.413Z,51.18
2018-12-15T12:13:07.805Z,51.67
2018-12-15T12:16:32.702Z,52.01
2018-12-15T12:19:57.450Z,51.66
2018-12-15T12:23:22.232Z,52.15
2018-12-15T12:26:47.086Z,51.43
2018-12-15T12:30:12.019Z,52.46
2018-12-15T12:33:36.825Z,51.91
2018-12-15T12:37:02.253Z,50.85
2018-12-15T12:40:26.993Z,51.67
2018-12-15T12:43:51.777Z,51.36
2018-12-15T12:47:16.663Z,51.52
2018-12-15T12:50:41.340Z,51.66
2018-12-15T12:54:07.106Z,51.67
2018-12-15T12:57:31.847Z,51.14
2018-12-15T13:00:56.776Z,51.52
2018-12-15T13:04:21.560Z,52.11
2018-12-15T13:07:46.308Z,51.17
2018-12-15T13:11:11.873Z,51.02
2018-12-15T13:14:41.855Z,50.76
2018-12-15T13:18:12.223Z,51.26
2018-12-15T13:21:36.984Z,50.62
2018-12-15T13:25:01.717Z,50.20
2018-12-15T13:28:29.430Z,50.06
2018-12-15T13:31:54.847Z,50.22
2018-12-15T13:35:19.625Z,50.01
2018-12-15T13:38:45.709Z,49.80
2018-12-15T13:42:10.714Z,49.44
2018-12-15T13:45:35.461Z,50.69
2018-12-15T13:49:00.252Z,51.57
2018-12-15T13:52:24.965Z,50.54
2018-12-15T13:55:49.771Z,50.15
2018-12-15T13:59:14.603Z,51.18
2018-12-15T14:02:39.322Z,51.04
2018-12-15T14:06:04.053Z,50.34
2018-12-15T14:09:28.720Z,50.37
2018-12-15T14:12:53.435Z,50.83
2018-12-15T14:16:18.130Z,49.95
2018-12-15T14:19:42.808Z,50.22
2018-12-15T14:23:07.423Z,50.39
2018-12-15T14:26:32.181Z,50.49
2018-12-15T14:29:56.892Z,50.81
2018-12-15T14:33:21.615Z,50.88
2018-12-15T14:36:46.380Z,50.73
2018-12-15T14:40:11.200Z,50.92
2018-12-15T14:43:35.914Z,51.00
2018-12-15T14:47:00.745Z,50.98
2018-12-15T14:50:25.480Z,51.40
2018-12-15T14:53:50.212Z,51.31
2018-12-15T14:57:17.198Z,51.37
2018-12-15T15:00:41.860Z,51.95
2018-12-15T15:04:06.593Z,51.54
2018-12-15T15:07:31.542Z,51.34
2018-12-15T15:10:56.267Z,51.38
2018-12-15T15:14:21.478Z,52.68
2018-12-15T15:17:46.266Z,53.57
2018-12-15T15:21:11.133Z,53.55
2018-12-15T15:24:35.886Z,53.63
2018-12-15T15:28:00.613Z,53.62
2018-12-15T15:31:25.287Z,53.61
2018-12-15T15:34:50.032Z,53.82
2018-12-15T15:38:14.821Z,53.30
2018-12-15T15:41:39.601Z,54.52
2018-12-15T15:45:04.725Z,53.75
2018-12-15T15:48:29.453Z,54.11
2018-12-15T15:51:54.217Z,54.51
2018-12-15T15:55:18.909Z,54.31
2018-12-15T15:58:43.570Z,54.40
2018-12-15T16:02:08.573Z,55.61
2018-12-15T16:05:33.405Z,55.33
2018-12-15T16:08:58.466Z,55.37
2018-12-15T16:12:23.108Z,54.76
2018-12-15T16:15:47.852Z,55.53
2018-12-15T16:19:12.530Z,55.14
2018-12-15T16:22:37.225Z,55.48
2018-12-15T16:26:01.926Z,55.62
2018-12-15T16:29:26.618Z,54.99
2018-12-15T16:32:51.363Z,55.02
2018-12-15T16:36:16.067Z,54.98
2018-12-15T16:39:40.796Z,55.49
2018-12-15T16:43:05.798Z,55.68
2018-12-15T16:46:31.023Z,55.63
2018-12-15T16:49:55.780Z,55.08
2018-12-15T16:53:20.525Z,54.84
2018-12-15T16:56:45.256Z,55.07
2018-12-15T17:00:15.259Z,55.36
2018-12-15T17:03:39.951Z,54.66
2018-12-15T17:07:04.814Z,55.31
2018-12-15T17:10:29.543Z,54.39
2018-12-15T17:13:54.248Z,55.04
2018-12-15T17:17:19.046Z,55.36
2018-12-15T17:20:43.828Z,55.18
2018-12-15T17:24:08.656Z,55.28
2018-12-15T17:27:34.013Z,56.03
2018-12-15T17:30:58.828Z,55.99
2018-12-15T17:34:23.518Z,55.61
2018-12-15T17:37:48.221Z,56.15
2018-12-15T17:41:12.933Z,56.03
2018-12-15T17:44:37.862Z,56.37
2018-12-15T17:48:03.008Z,56.12
2018-12-15T17:51:27.815Z,55.83
2018-12-15T17:54:52.763Z,56.32
2018-12-15T17:58:17.527Z,56.27
2018-12-15T18:01:42.273Z,56.25
2018-12-15T18:05:07.329Z,56.84
2018-12-15T18:08:32.115Z,56.77
2018-12-15T18:11:56.970Z,56.93
2018-12-15T18:15:21.735Z,57.40
2018-12-15T18:18:46.684Z,57.16
2018-12-15T18:22:11.495Z,57.20
2018-12-15T18:25:36.169Z,57.07
2018-12-15T18:29:00.888Z,57.55
2018-12-15T18:32:25.807Z,57.19
2018-12-15T18:35:50.504Z,57.61
2018-12-15T18:39:16.432Z,56.92
2018-12-15T18:42:41.156Z,57.76
2018-12-15T18:46:06.046Z,57.18
2018-12-15T18:49:30.825Z,57.10
2018-12-15T18:52:55.746Z,57.20
2018-12-15T18:56:20.750Z,57.16
2018-12-15T18:59:45.559Z,56.36
2018-12-15T19:03:10.366Z,57.11
2018-12-15T19:06:37.249Z,57.61
2018-12-15T19:24:06.740Z,57.66
2018-12-15T19:31:05.239Z,57.51
2018-12-15T19:34:30.350Z,57.42
2018-12-15T19:37:56.222Z,57.40
2018-12-15T19:41:21.354Z,58.31
2018-12-15T19:44:47.072Z,58.46
2018-12-15T19:48:12.897Z,57.12
2018-12-15T19:51:38.949Z,58.28
2018-12-15T19:55:03.674Z,57.81
2018-12-15T19:58:29.090Z,57.90
2018-12-15T20:01:54.103Z,58.08
2018-12-15T20:05:19.983Z,58.13
2018-12-15T20:08:46.714Z,58.03
2018-12-15T20:12:30.090Z,57.72
2018-12-15T20:20:02.482Z,58.03
2018-12-15T20:23:27.492Z,57.97
2018-12-15T20:26:54.867Z,58.14
2018-12-15T20:30:20.709Z,58.07
2018-12-15T20:33:53.296Z,58.41
2018-12-15T20:37:17.982Z,58.11
2018-12-15T20:40:43.804Z,58.28
2018-12-15T20:44:10.731Z,58.64
2018-12-15T20:47:36.136Z,57.71
2018-12-15T20:51:01.844Z,58.54
2018-12-15T20:54:26.583Z,58.04
2018-12-15T20:57:51.292Z,57.51
2018-12-15T21:04:50.936Z,58.06
2018-12-15T21:08:15.715Z,57.86
2018-12-15T21:11:41.201Z,57.75
2018-12-15T21:15:16.391Z,58.05
2018-12-15T21:18:41.135Z,57.48
2018-12-15T21:22:11.383Z,57.56
2018-12-15T21:25:36.052Z,56.86
2018-12-15T21:29:00.774Z,57.52
2018-12-15T21:32:25.652Z,56.69
2018-12-15T21:35:50.362Z,57.27
2018-12-15T21:39:15.052Z,56.61
2018-12-15T21:42:39.760Z,57.00
2018-12-15T21:46:04.587Z,56.74
2018-12-15T21:49:29.304Z,57.10
2018-12-15T21:52:54.140Z,56.62
2018-12-15T21:56:18.972Z,56.22
2018-12-15T21:59:43.773Z,55.69
2018-12-15T22:03:08.464Z,56.78
2018-12-15T22:06:33.217Z,56.10
2018-12-15T22:09:57.927Z,56.61
2018-12-15T22:13:22.742Z,56.44
2018-12-15T22:16:47.525Z,56.18
2018-12-15T22:20:12.521Z,56.37
2018-12-15T22:23:37.290Z,55.69
2018-12-15T22:27:02.067Z,55.65
2018-12-15T22:30:26.828Z,55.89
2018-12-15T22:33:51.601Z,55.55
2018-12-15T22:37:16.590Z,55.47
2018-12-15T22:40:41.366Z,55.70
2018-12-15T22:44:07.822Z,55.31
2018-12-15T22:47:32.593Z,55.38
2018-12-15T22:51:12.464Z,55.12
2018-12-15T22:54:37.243Z,55.34
2018-12-15T22:58:02.011Z,54.82
2018-12-15T23:01:26.835Z,55.27
2018-12-15T23:04:52.447Z,55.20
2018-12-15T23:08:17.561Z,54.96
2018-12-15T23:11:42.536Z,54.68
2018-12-15T23:15:08.917Z,54.73
2018-12-15T23:18:33.759Z,54.45
2018-12-15T23:21:58.733Z,54.42
2018-12-15T23:25:23.580Z,54.80
2018-12-15T23:28:48.424Z,53.99
2018-12-15T23:32:13.487Z,54.21
2018-12-15T23:35:38.369Z,53.69
2018-12-15T23:39:03.771Z,54.01
2018-12-15T23:42:28.500Z,54.14
2018-12-15T23:45:53.259Z,54.23
2018-12-15T23:49:17.990Z,54.45
2018-12-15T23:52:42.735Z,53.41
2018-12-15T23:56:07.485Z,54.27
2018-12-15T23:59:32.257Z,54.15
